Time;durP1;ratioP1;P1;durP2;ratioP2;P2;SDS_P1;SDS_P2;PMS_P1;PMS_P2;Temp;Humidity;BMP_temperature;BMP_pressure;BME280_temperature;BME280_humidity;BME280_pressure;Samples;Min_cycle;Max_cycle;Signal;HPM_P1;HPM_P2
2023/06/05 00:00:52;;;;;;;13.43;8.80;;;;;;;13.43;80.05;95246.16;5051338;28;20486;-74
2023/06/05 00:03:17;;;;;;;10.27;8.13;;;;;;;13.22;81.15;95243.59;5050853;28;20029;-74
2023/06/05 00:05:43;;;;;;;10.27;8.18;;;;;;;13.21;82.00;95247.19;5050065;28;20458;-74
2023/06/05 00:08:08;;;;;;;9.48;8.48;;;;;;;13.16;82.00;95244.97;5031716;28;20047;-74
2023/06/05 00:10:34;;;;;;;11.43;8.13;;;;;;;13.16;81.68;95232.75;5030107;28;20053;-74
2023/06/05 00:12:59;;;;;;;9.65;8.45;;;;;;;13.14;81.87;95233.84;5029709;28;20029;-74
2023/06/05 00:15:25;;;;;;;8.88;7.78;;;;;;;13.28;81.82;95245.72;5013633;28;20518;-75
2023/06/05 00:17:51;;;;;;;9.85;8.32;;;;;;;13.27;81.52;95251.91;5013515;28;20470;-75
2023/06/05 00:20:17;;;;;;;10.02;7.80;;;;;;;13.29;81.26;95249.97;5031095;28;20029;-74
2023/06/05 00:22:44;;;;;;;9.40;8.13;;;;;;;13.19;81.73;95255.13;5029882;28;20511;-75
2023/06/05 00:25:09;;;;;;;11.18;8.38;;;;;;;13.25;81.71;95254.59;5030273;28;20025;-74
2023/06/05 00:27:35;;;;;;;9.88;7.70;;;;;;;13.08;81.92;95252.63;5029909;28;20534;-74
2023/06/05 00:30:00;;;;;;;8.63;7.72;;;;;;;13.41;81.29;95260.16;5013447;28;20036;-74
2023/06/05 00:32:26;;;;;;;9.88;7.65;;;;;;;13.34;80.69;95246.00;5031139;28;20395;-74
2023/06/05 00:34:51;;;;;;;8.35;7.50;;;;;;;13.29;80.25;95256.03;5029846;28;20400;-74
2023/06/05 00:37:17;;;;;;;12.15;7.85;;;;;;;13.13;80.69;95243.44;5013415;28;20057;-74
2023/06/05 00:39:42;;;;;;;8.63;7.70;;;;;;;13.04;81.18;95236.41;5030983;28;20029;-74
2023/06/05 00:42:11;;;;;;;9.32;7.13;;;;;;;13.01;81.22;95249.72;5029572;28;20045;-74
2023/06/05 00:44:36;;;;;;;10.32;7.63;;;;;;;13.04;81.34;95236.41;5029834;28;20036;-74
2023/06/05 00:47:02;;;;;;;9.52;8.10;;;;;;;13.08;81.12;95252.63;5031211;28;20030;-74
2023/06/05 00:49:27;;;;;;;10.50;7.70;;;;;;;13.02;81.95;95253.16;5031851;28;20025;-74
2023/06/05 00:51:52;;;;;;;8.55;7.65;;;;;;;12.97;81.62;95241.31;5033253;28;20037;-74
2023/06/05 00:54:18;;;;;;;8.05;7.25;;;;;;;12.93;81.59;95242.56;5033387;28;20038;-74
2023/06/05 00:56:44;;;;;;;9.35;7.78;;;;;;;13.04;80.76;95241.63;5034782;28;20033;-75
2023/06/05 00:59:09;;;;;;;9.27;7.75;;;;;;;12.92;80.88;95227.84;5016952;28;20060;-74
2023/06/05 01:01:36;;;;;;;10.30;7.80;;;;;;;12.83;81.33;95197.34;5033980;28;20037;-74
2023/06/05 01:04:01;;;;;;;8.73;7.88;;;;;;;12.81;81.79;95216.69;5033275;28;20032;-74
2023/06/05 01:06:27;;;;;;;9.05;8.15;;;;;;;12.83;81.98;95223.41;5017298;28;20120;-75
2023/06/05 01:08:53;;;;;;;8.20;7.38;;;;;;;13.06;81.44;95215.41;5049645;28;20022;-74
2023/06/05 01:11:38;;;;;;;12.32;7.90;;;;;;;13.00;81.95;95216.75;5049387;28;20061;-74
2023/06/05 01:14:15;;;;;;;9.63;7.80;;;;;;;13.00;82.05;95215.94;5032699;28;20454;-74
2023/06/05 01:16:42;;;;;;;11.40;8.00;;;;;;;13.01;82.13;95222.78;5034442;28;20040;-74
2023/06/05 01:19:10;;;;;;;12.35;8.10;;;;;;;12.99;82.05;95216.91;5016616;28;20107;-74
2023/06/05 01:21:35;;;;;;;9.55;7.55;;;;;;;13.03;81.55;95215.69;5032895;28;20037;-74
2023/06/05 01:24:01;;;;;;;10.00;7.85;;;;;;;12.84;82.03;95219.03;5032607;28;20033;-74
2023/06/05 01:27:02;;;;;;;8.88;7.88;;;;;;;12.85;81.02;95213.69;5034258;28;20034;-74
2023/06/05 01:29:53;;;;;;;8.52;7.63;;;;;;;12.90;81.66;95216.75;5032815;28;20119;-74
2023/06/05 01:32:29;;;;;;;9.13;8.15;;;;;;;12.80;81.98;95215.88;5022474;28;20396;-74
2023/06/05 01:34:55;;;;;;;9.35;8.25;;;;;;;12.62;83.08;95202.63;5017034;28;20033;-74
2023/06/05 01:37:24;;;;;;;11.00;9.32;;;;;;;12.58;83.58;95209.03;5032672;28;20034;-74
2023/06/05 01:39:50;;;;;;;13.35;8.75;;;;;;;12.59;83.74;95222.88;5032615;28;20086;-74
2023/06/05 01:42:15;;;;;;;10.02;9.02;;;;;;;12.57;84.24;95214.41;5032608;28;20112;-75
2023/06/05 01:44:41;;;;;;;11.85;8.85;;;;;;;12.64;83.66;95218.94;5048791;28;20610;-74
2023/06/05 01:47:06;;;;;;;10.30;8.90;;;;;;;12.76;82.87;95209.28;5032481;28;20484;-74
2023/06/05 01:49:32;;;;;;;10.35;8.20;;;;;;;12.81;81.72;95203.66;5032375;28;20495;-74
2023/06/05 01:51:57;;;;;;;9.73;8.73;;;;;;;12.72;82.26;95200.06;5033777;28;20033;-74
2023/06/05 01:54:23;;;;;;;10.35;9.27;;;;;;;12.69;83.76;95206.34;5033110;28;20036;-74
2023/06/05 01:56:50;;;;;;;10.32;9.15;;;;;;;12.52;84.26;95199.97;5032370;28;20041;-74
2023/06/05 01:59:15;;;;;;;13.48;9.07;;;;;;;12.58;84.44;95206.44;5032067;28;20049;-75
2023/06/05 02:01:43;;;;;;;9.68;8.68;;;;;;;12.50;83.91;95181.00;5030930;28;20411;-74
2023/06/05 02:04:16;;;;;;;12.55;9.38;;;;;;;12.61;84.21;95203.56;5015430;28;20067;-74
2023/06/05 02:06:43;;;;;;;10.43;9.32;;;;;;;12.80;85.58;95202.84;5018045;28;20584;-74
2023/06/05 02:09:10;;;;;;;11.70;9.90;;;;;;;12.78;85.77;95194.31;5033046;28;20021;-74
2023/06/05 02:11:37;;;;;;;11.98;9.77;;;;;;;12.84;86.02;95193.81;5032057;28;20086;-74
2023/06/05 02:14:12;;;;;;;10.73;9.50;;;;;;;12.86;86.08;95184.06;5031542;28;20025;-74
2023/06/05 02:16:37;;;;;;;13.07;10.43;;;;;;;13.00;86.47;95187.25;5031937;28;20116;-75
2023/06/05 02:19:03;;;;;;;12.35;9.88;;;;;;;13.15;85.95;95178.94;5033050;28;20017;-74
2023/06/05 02:21:35;;;;;;;11.27;10.00;;;;;;;13.22;85.79;95176.59;5032780;28;20089;-74
2023/06/05 02:24:00;;;;;;;10.80;9.57;;;;;;;13.12;85.29;95174.00;5032926;28;20084;-74
2023/06/05 02:26:27;;;;;;;14.13;9.63;;;;;;;13.17;84.94;95184.00;5031363;28;20045;-74
2023/06/05 02:28:55;;;;;;;14.52;10.32;;;;;;;13.15;85.54;95185.94;5031526;28;20029;-74
2023/06/05 02:31:28;;;;;;;11.50;10.05;;;;;;;13.38;84.16;95187.38;5031610;28;20519;-75
2023/06/05 02:33:55;;;;;;;11.80;9.07;;;;;;;13.29;83.57;95193.41;5048307;28;20060;-74
2023/06/05 02:36:24;;;;;;;11.65;9.27;;;;;;;12.86;83.80;95191.06;5031297;28;20030;-74
2023/06/05 02:38:50;;;;;;;11.63;9.80;;;;;;;12.95;83.57;95198.94;5047920;28;20040;-74
2023/06/05 02:41:21;;;;;;;12.27;9.35;;;;;;;12.92;84.03;95187.91;5048268;28;20041;-73
2023/06/05 02:43:46;;;;;;;12.05;9.35;;;;;;;12.90;84.20;95197.66;5032705;28;20029;-74
2023/06/05 02:46:12;;;;;;;11.27;9.57;;;;;;;12.79;84.22;95206.41;5031435;28;20096;-74
2023/06/05 02:48:37;;;;;;;10.68;8.98;;;;;;;12.91;84.08;95200.13;5030833;28;20034;-74
2023/06/05 02:51:03;;;;;;;10.93;9.35;;;;;;;12.79;83.68;95179.50;5014418;28;20059;-74
2023/06/05 02:53:29;;;;;;;10.88;9.63;;;;;;;12.73;84.37;95207.75;5047460;28;20509;-74
2023/06/05 02:55:55;;;;;;;12.10;9.93;;;;;;;12.75;85.15;95205.00;5014343;28;20550;-74
2023/06/05 02:58:21;;;;;;;13.45;10.75;;;;;;;12.74;85.20;95206.78;5032316;28;20021;-74
2023/06/05 03:00:47;;;;;;;12.45;10.90;;;;;;;12.79;85.73;95214.22;5032375;28;20029;-73
2023/06/05 03:03:16;;;;;;;12.40;10.73;;;;;;;12.74;86.17;95204.19;5047712;28;20029;-75
2023/06/05 03:05:42;;;;;;;14.35;11.40;;;;;;;12.84;86.34;95208.59;5030867;28;20034;-74
2023/06/05 03:08:08;;;;;;;15.48;12.05;;;;;;;12.91;86.84;95205.34;5050328;28;20479;-74
2023/06/05 03:10:33;;;;;;;11.57;10.38;;;;;;;12.85;86.37;95195.44;5050619;28;20063;-74
2023/06/05 03:12:59;;;;;;;12.65;11.10;;;;;;;12.88;86.49;95195.19;5050030;28;20036;-74
2023/06/05 03:15:24;;;;;;;11.85;10.07;;;;;;;12.93;86.07;95203.44;5051791;28;20044;-74
2023/06/05 03:17:50;;;;;;;12.40;10.15;;;;;;;12.89;85.46;95196.00;5050192;28;20029;-74
2023/06/05 03:20:17;;;;;;;11.50;9.77;;;;;;;13.02;84.71;95204.44;5051591;28;20021;-75
2023/06/05 03:22:43;;;;;;;10.95;9.57;;;;;;;13.18;83.84;95211.75;5050453;28;20030;-74
2023/06/05 03:25:09;;;;;;;12.00;9.52;;;;;;;13.29;82.87;95203.84;5033841;28;20040;-74
2023/06/05 03:27:35;;;;;;;10.98;9.23;;;;;;;13.12;83.04;95215.72;5050165;28;20499;-75
2023/06/05 03:30:01;;;;;;;9.75;8.75;;;;;;;13.15;83.13;95215.47;5051630;28;20414;-74
2023/06/05 03:32:27;;;;;;;11.15;9.13;;;;;;;12.97;84.21;95204.00;5051981;28;20098;-74
2023/06/05 03:34:52;;;;;;;10.07;9.00;;;;;;;13.07;84.56;95211.88;5050288;28;20454;-74
2023/06/05 03:37:18;;;;;;;10.77;9.55;;;;;;;13.20;84.20;95215.03;5050100;28;20099;-74
2023/06/05 03:39:43;;;;;;;11.27;9.65;;;;;;;13.14;84.55;95216.38;5050338;28;20435;-74
2023/06/05 03:42:11;;;;;;;11.02;9.88;;;;;;;13.30;82.37;95200.28;5050363;28;20047;-74
2023/06/05 03:44:37;;;;;;;11.23;9.10;;;;;;;13.61;81.80;95234.13;5051761;28;20032;-74
2023/06/05 03:47:03;;;;;;;12.35;9.63;;;;;;;13.41;82.20;95225.44;5033538;28;20044;-74
2023/06/05 03:49:29;;;;;;;12.52;10.02;;;;;;;13.57;82.51;95223.13;5051361;28;20098;-75
2023/06/05 03:52:00;;;;;;;13.57;9.63;;;;;;;13.49;82.68;95224.75;5051672;28;20033;-74
2023/06/05 03:54:32;;;;;;;11.20;10.00;;;;;;;13.56;83.17;95231.06;5034015;28;20047;-75
2023/06/05 03:57:00;;;;;;;11.73;9.55;;;;;;;13.78;82.45;95223.00;5034325;28;20021;-74
2023/06/05 03:59:27;;;;;;;11.88;9.55;;;;;;;13.84;82.82;95234.69;5033827;28;20107;-74
2023/06/05 04:01:53;;;;;;;12.55;9.85;;;;;;;13.93;82.48;95218.22;5051611;28;20122;-74
2023/06/05 04:04:18;;;;;;;12.50;10.10;;;;;;;13.92;82.30;95210.50;5050089;28;20116;-74
2023/06/05 04:06:44;;;;;;;11.68;9.93;;;;;;;13.95;82.76;95225.88;5044264;28;20038;-74
2023/06/05 04:09:12;;;;;;;11.55;9.23;;;;;;;14.08;83.14;95229.88;5029743;28;20041;-74
2023/06/05 04:11:39;;;;;;;10.63;8.90;;;;;;;14.30;82.78;95233.16;5037761;28;20048;-74
2023/06/05 04:14:04;;;;;;;11.77;9.25;;;;;;;14.44;82.23;95230.09;5049914;28;20032;-74
2023/06/05 04:16:30;;;;;;;11.02;9.85;;;;;;;14.91;81.76;95229.34;5051114;28;20033;-74
2023/06/05 04:18:56;;;;;;;11.23;10.02;;;;;;;15.55;80.29;95228.47;5051040;28;20078;-74
2023/06/05 04:21:21;;;;;;;11.52;10.32;;;;;;;15.80;77.32;95223.50;5050062;28;20037;-75
2023/06/05 04:23:47;;;;;;;15.15;10.65;;;;;;;15.98;76.99;95229.56;5052178;28;20025;-75
2023/06/05 04:26:13;;;;;;;11.57;10.05;;;;;;;17.04;72.21;95233.94;5053652;28;20044;-74
2023/06/05 04:28:39;;;;;;;13.98;10.65;;;;;;;17.63;68.57;95213.81;5053827;28;20103;-74
2023/06/05 04:31:04;;;;;;;12.48;11.10;;;;;;;18.44;68.40;95223.63;5055080;28;20048;-74
2023/06/05 04:33:29;;;;;;;16.42;11.00;;;;;;;19.11;64.43;95220.72;5054735;28;20025;-75
2023/06/05 04:35:55;;;;;;;11.13;9.75;;;;;;;19.57;63.86;95223.47;5054747;28;20063;-74
2023/06/05 04:38:21;;;;;;;12.32;9.40;;;;;;;20.01;60.14;95225.56;5053398;28;20094;-75
2023/06/05 04:40:48;;;;;;;9.50;8.52;;;;;;;20.04;59.61;95227.03;5054894;28;20033;-74
2023/06/05 04:43:14;;;;;;;9.38;8.32;;;;;;;20.19;60.67;95216.53;5053533;28;20483;-75
2023/06/05 04:45:41;;;;;;;9.65;8.32;;;;;;;19.63;61.01;95220.16;5036700;28;20562;-74
2023/06/05 04:48:06;;;;;;;10.00;8.68;;;;;;;19.34;62.16;95222.63;5053462;28;20116;-74
2023/06/05 04:50:33;;;;;;;12.02;8.48;;;;;;;19.02;62.23;95224.34;5053349;28;20029;-74
2023/06/05 04:52:59;;;;;;;9.60;8.00;;;;;;;18.74;62.16;95224.75;5053356;28;20121;-74
2023/06/05 04:55:24;;;;;;;9.55;8.55;;;;;;;18.79;63.08;95228.69;5053019;28;20037;-74
2023/06/05 04:57:51;;;;;;;9.40;8.40;;;;;;;18.34;64.51;95220.31;5054400;28;20404;-74
2023/06/05 05:00:16;;;;;;;12.55;9.38;;;;;;;18.15;65.61;95204.88;5053215;28;20075;-74
2023/06/05 05:02:42;;;;;;;10.10;8.93;;;;;;;17.86;66.47;95221.94;5038263;28;20041;-74
2023/06/05 05:05:08;;;;;;;10.35;9.25;;;;;;;17.81;67.88;95229.50;5016254;28;20030;-74
2023/06/05 05:07:35;;;;;;;12.23;9.43;;;;;;;17.86;68.06;95230.66;5046412;28;20025;-74
2023/06/05 05:10:01;;;;;;;14.05;9.10;;;;;;;17.85;67.78;95221.09;5054126;28;20095;-74
2023/06/05 05:12:26;;;;;;;11.57;10.10;;;;;;;17.92;67.57;95228.34;5054694;28;20060;-74
2023/06/05 05:14:52;;;;;;;9.77;8.38;;;;;;;17.92;67.37;95226.56;5053868;28;20033;-75
2023/06/05 05:17:19;;;;;;;9.82;8.80;;;;;;;18.05;65.87;95221.66;5053027;28;20475;-75
2023/06/05 05:19:45;;;;;;;10.40;9.40;;;;;;;18.19;65.84;95219.31;5052958;28;20479;-75
2023/06/05 05:22:10;;;;;;;15.75;10.70;;;;;;;18.14;65.73;95214.59;5052931;28;20033;-74
2023/06/05 05:24:36;;;;;;;14.20;9.85;;;;;;;18.23;66.44;95232.00;5052472;28;20082;-74
2023/06/05 05:27:01;;;;;;;11.00;9.60;;;;;;;18.23;65.78;95221.47;5052766;28;20048;-74
2023/06/05 05:29:27;;;;;;;10.75;9.30;;;;;;;18.33;65.58;95228.38;5052714;28;20107;-75
2023/06/05 05:31:53;;;;;;;13.15;9.70;;;;;;;18.33;65.25;95217.84;5052769;28;20457;-75
2023/06/05 05:34:18;;;;;;;12.77;9.82;;;;;;;18.26;66.08;95221.16;5052060;28;20526;-74
2023/06/05 05:36:44;;;;;;;10.93;9.02;;;;;;;18.62;65.09;95218.16;5052587;28;20029;-75
2023/06/05 05:39:10;;;;;;;10.07;8.85;;;;;;;18.62;65.18;95228.69;5052542;28;20033;-75
2023/06/05 05:41:35;;;;;;;10.27;8.80;;;;;;;18.48;66.37;95214.41;5053846;28;20479;-75
2023/06/05 05:44:00;;;;;;;11.88;9.15;;;;;;;18.32;66.96;95219.66;5035485;28;20043;-75
2023/06/05 05:46:26;;;;;;;11.23;8.80;;;;;;;18.64;66.52;95216.19;5051761;28;20043;-77
2023/06/05 05:48:51;;;;;;;10.32;9.18;;;;;;;18.98;66.18;95217.78;5052330;28;20032;-77
2023/06/05 05:51:17;;;;;;;11.45;10.20;;;;;;;18.51;68.12;95206.19;5049159;28;20025;-75
2023/06/05 05:53:42;;;;;;;10.30;9.25;;;;;;;18.81;66.96;95213.56;5041784;28;20029;-74
2023/06/05 05:56:08;;;;;;;10.65;9.15;;;;;;;18.46;68.49;95210.28;5016155;28;20079;-74
2023/06/05 05:58:33;;;;;;;12.85;9.82;;;;;;;18.63;68.36;95206.63;5017564;28;20029;-74
2023/06/05 06:00:59;;;;;;;11.35;9.70;;;;;;;18.87;67.91;95210.25;5052722;28;20044;-75
2023/06/05 06:03:26;;;;;;;11.82;9.63;;;;;;;18.78;68.05;95179.66;5051812;28;20033;-74
2023/06/05 06:05:52;;;;;;;10.85;8.95;;;;;;;19.25;66.35;95202.56;5052105;28;20086;-74
2023/06/05 06:08:18;;;;;;;11.02;8.98;;;;;;;19.03;66.46;95189.16;5040065;28;20458;-74
2023/06/05 06:10:43;;;;;;;12.13;10.77;;;;;;;19.17;66.06;95206.06;5033913;28;20061;-74
2023/06/05 06:13:10;;;;;;;11.65;9.32;;;;;;;19.26;66.54;95204.22;5034060;28;20029;-75
2023/06/05 06:15:38;;;;;;;10.95;9.57;;;;;;;19.53;65.69;95203.75;5038268;28;20465;-74
2023/06/05 06:18:07;;;;;;;11.27;9.90;;;;;;;19.43;64.98;95206.59;5035690;28;20025;-74
2023/06/05 06:20:33;;;;;;;13.32;10.10;;;;;;;19.46;64.53;95208.06;5044390;28;20059;-75
2023/06/05 06:22:59;;;;;;;11.02;9.65;;;;;;;19.36;65.12;95207.44;5046887;28;20075;-75
2023/06/05 06:25:28;;;;;;;12.82;9.65;;;;;;;19.25;65.55;95202.56;5042713;28;20037;-75
2023/06/05 06:27:58;;;;;;;11.82;8.93;;;;;;;19.25;65.17;95194.66;5033827;28;20029;-74
2023/06/05 06:30:24;;;;;;;12.87;9.17;;;;;;;19.33;64.03;95205.16;5036996;28;20423;-75
2023/06/05 06:32:50;;;;;;;10.38;9.27;;;;;;;19.31;64.07;95194.00;5041931;28;20025;-74
2023/06/05 06:35:15;;;;;;;11.40;9.38;;;;;;;19.32;64.51;95196.44;5045612;28;20048;-74
2023/06/05 06:37:41;;;;;;;10.25;9.02;;;;;;;19.38;63.78;95192.28;5052515;28;20025;-74
2023/06/05 06:40:10;;;;;;;10.57;9.40;;;;;;;19.47;63.08;95188.63;5032743;28;20029;-73
2023/06/05 06:42:38;;;;;;;9.75;8.43;;;;;;;19.90;61.91;95190.88;5021374;28;20025;-74
2023/06/05 06:45:04;;;;;;;8.27;7.30;;;;;;;19.93;61.09;95183.44;5049983;28;20029;-74
2023/06/05 06:47:30;;;;;;;9.65;8.48;;;;;;;19.92;61.89;95179.19;5013361;28;20419;-73
2023/06/05 06:49:56;;;;;;;9.32;8.02;;;;;;;19.93;61.58;95170.25;5014159;28;20060;-74
2023/06/05 06:52:22;;;;;;;10.52;8.60;;;;;;;20.03;61.04;95183.19;5029505;28;20025;-74
2023/06/05 06:54:47;;;;;;;9.35;8.32;;;;;;;20.06;61.42;95170.50;5045462;28;20068;-74
2023/06/05 06:57:13;;;;;;;9.15;8.10;;;;;;;20.49;59.97;95181.31;5030557;28;20045;-74
2023/06/05 06:59:40;;;;;;;8.57;7.70;;;;;;;20.34;59.46;95177.84;5028913;28;20033;-74
2023/06/05 07:02:17;;;;;;;8.48;7.68;;;;;;;20.63;58.86;95177.09;5029088;28;20033;-74
2023/06/05 07:04:43;;;;;;;11.15;6.55;;;;;;;20.66;58.11;95183.84;5028697;28;20067;-74
2023/06/05 07:07:13;;;;;;;7.40;6.70;;;;;;;20.64;57.35;95178.72;5029008;28;20099;-74
2023/06/05 07:09:39;;;;;;;;;;;;;;;20.67;58.11;95178.41;5029208;28;20040;-74
2023/06/05 07:12:05;;;;;;;6.75;6.10;;;;;;;20.98;55.54;95186.16;5029752;28;19921;-74
2023/06/05 07:14:35;;;;;;;6.55;5.95;;;;;;;21.22;55.16;95175.47;5027808;28;20025;-73
2023/06/05 07:17:00;;;;;;;7.05;6.35;;;;;;;21.19;56.89;95181.94;5028031;28;20472;-74
2023/06/05 07:19:27;;;;;;;7.05;6.35;;;;;;;21.41;56.32;95175.75;5028227;28;20017;-75
2023/06/05 07:21:57;;;;;;;7.55;6.72;;;;;;;21.33;56.06;95154.69;5029566;28;20057;-75
2023/06/05 07:24:26;;;;;;;7.90;7.00;;;;;;;21.52;55.17;95171.00;5032756;28;20038;-75
2023/06/05 07:26:55;;;;;;;7.47;6.78;;;;;;;21.39;54.95;95174.28;5046693;28;20028;-74
2023/06/05 07:29:24;;;;;;;7.68;6.32;;;;;;;21.19;55.06;95181.94;5041960;28;20037;-74
2023/06/05 07:31:53;;;;;;;7.53;6.57;;;;;;;21.48;54.10;95169.72;5029862;28;20037;-74
2023/06/05 07:34:19;;;;;;;8.30;7.03;;;;;;;21.74;53.92;95175.31;5013291;28;20033;-75
2023/06/05 07:36:45;;;;;;;7.53;6.72;;;;;;;21.69;55.16;95168.94;5029466;28;20030;-74
2023/06/05 07:39:12;;;;;;;8.40;6.70;;;;;;;21.99;54.15;95169.66;5016380;28;20121;-74
2023/06/05 07:41:39;;;;;;;7.95;7.15;;;;;;;22.01;53.39;95175.59;5022701;28;20037;-74
2023/06/05 07:44:05;;;;;;;9.10;6.88;;;;;;;21.65;54.06;95176.44;5049618;28;20059;-75
2023/06/05 07:46:31;;;;;;;6.70;6.00;;;;;;;21.99;50.80;95174.94;5041538;28;20072;-75
2023/06/05 07:48:56;;;;;;;8.05;6.65;;;;;;;21.95;51.99;95186.91;5039082;28;20469;-74
2023/06/05 07:51:22;;;;;;;8.20;7.40;;;;;;;21.61;52.98;95186.53;5049366;28;20025;-74
2023/06/05 07:53:47;;;;;;;7.90;6.97;;;;;;;21.68;52.25;95178.69;5036603;28;20033;-75
2023/06/05 07:56:13;;;;;;;9.25;6.63;;;;;;;22.04;50.35;95181.31;5032848;28;20403;-74
2023/06/05 07:58:41;;;;;;;6.93;6.18;;;;;;;21.51;51.44;95188.69;5037644;28;20586;-74
2023/06/05 08:01:07;;;;;;;6.93;6.22;;;;;;;21.97;51.81;95185.69;5031342;28;20507;-74
2023/06/05 08:03:32;;;;;;;11.80;7.22;;;;;;;22.24;51.40;95183.34;5029326;28;20069;-74
2023/06/05 08:05:58;;;;;;;7.75;6.30;;;;;;;22.05;50.29;95176.84;5030305;28;20030;-74
2023/06/05 08:08:24;;;;;;;7.28;6.43;;;;;;;21.87;50.96;95179.94;5019347;28;20037;-75
2023/06/05 08:10:49;;;;;;;8.02;6.47;;;;;;;22.28;50.55;95179.31;4996832;28;1189863;-74
2023/06/05 08:13:15;;;;;;;6.80;6.05;;;;;;;22.36;50.85;95165.13;5031106;28;20040;-75
2023/06/05 08:15:40;;;;;;;9.02;6.93;;;;;;;22.55;51.40;95185.63;5031048;28;20388;-74
2023/06/05 08:18:06;;;;;;;12.07;8.55;;;;;;;22.63;50.81;95190.78;5029869;28;20377;-74
2023/06/05 08:20:31;;;;;;;8.27;6.63;;;;;;;22.67;49.50;95189.38;5031275;28;20029;-75
2023/06/05 08:22:57;;;;;;;8.38;6.90;;;;;;;22.42;49.94;95180.22;5031171;28;20083;-74
2023/06/05 08:25:23;;;;;;;7.70;6.80;;;;;;;22.32;50.38;95172.63;5030889;28;20030;-74
2023/06/05 08:27:49;;;;;;;8.02;6.78;;;;;;;22.38;51.06;95186.94;5029893;28;20108;-74
2023/06/05 08:30:16;;;;;;;11.80;8.63;;;;;;;22.28;51.06;95187.25;5030989;28;20044;-74
2023/06/05 08:32:41;;;;;;;7.72;6.72;;;;;;;22.65;51.58;95188.78;5031135;28;20108;-74
2023/06/05 08:35:07;;;;;;;9.18;7.25;;;;;;;22.51;51.28;95197.59;5030711;28;20025;-74
2023/06/05 08:37:32;;;;;;;7.72;6.93;;;;;;;22.50;51.80;95190.69;5029911;28;20072;-74
2023/06/05 08:39:59;;;;;;;9.20;6.88;;;;;;;22.63;51.06;95193.44;5031307;28;20022;-75
2023/06/05 08:42:28;;;;;;;8.02;6.72;;;;;;;22.62;50.80;95194.47;5029800;28;20044;-74
2023/06/05 08:44:54;;;;;;;7.22;6.53;;;;;;;22.54;51.27;95197.25;5013479;28;20037;-74
2023/06/05 08:47:19;;;;;;;8.57;7.15;;;;;;;22.58;50.38;95197.66;4996841;28;20187;-74
2023/06/05 08:49:45;;;;;;;8.13;7.18;;;;;;;22.29;52.15;95195.00;5030901;28;20033;-75
2023/06/05 08:52:10;;;;;;;7.43;6.60;;;;;;;22.36;51.41;95191.59;5029846;28;20062;-74
2023/06/05 08:54:39;;;;;;;8.27;7.00;;;;;;;21.96;52.78;95192.00;5012953;28;20041;-74
2023/06/05 08:57:06;;;;;;;8.68;6.70;;;;;;;22.14;50.85;95191.56;5013165;28;20045;-74
2023/06/05 08:59:32;;;;;;;8.68;7.22;;;;;;;21.85;52.13;95198.59;5029618;28;20030;-74
2023/06/05 09:01:57;;;;;;;8.18;7.15;;;;;;;21.93;52.79;95195.03;5013095;28;20037;-75
2023/06/05 09:04:29;;;;;;;8.90;7.30;;;;;;;21.81;54.15;95200.00;5029495;28;20038;-74
2023/06/05 09:06:58;;;;;;;8.63;7.35;;;;;;;21.91;53.32;95202.31;5030828;28;20021;-74
2023/06/05 09:09:25;;;;;;;10.18;7.22;;;;;;;21.83;53.26;95200.63;5013616;28;20116;-74
2023/06/05 09:12:08;;;;;;;11.40;7.00;;;;;;;21.74;55.84;95200.94;5034426;28;20488;-74
2023/06/05 09:14:34;;;;;;;10.93;7.25;;;;;;;21.58;54.10;95202.78;5016671;28;20037;-75
2023/06/05 09:17:00;;;;;;;7.80;6.63;;;;;;;21.14;56.18;95205.44;5032892;28;20034;-74
2023/06/05 09:19:40;;;;;;;8.15;7.28;;;;;;;21.27;56.98;95220.66;5032673;28;20503;-74
2023/06/05 09:22:09;;;;;;;14.75;6.63;;;;;;;21.17;57.19;95213.00;5017519;28;20033;-74
2023/06/05 09:24:36;;;;;;;8.88;7.05;;;;;;;21.07;56.79;95212.47;5016516;28;20033;-74
2023/06/05 09:27:01;;;;;;;8.65;7.03;;;;;;;21.13;59.38;95224.94;5033084;28;20036;-74
2023/06/05 09:29:27;;;;;;;8.23;7.30;;;;;;;21.12;57.70;95223.31;5033980;28;20025;-75
2023/06/05 09:31:54;;;;;;;9.50;7.68;;;;;;;20.83;58.38;95221.44;5032330;28;20030;-74
2023/06/05 09:34:30;;;;;;;8.75;7.20;;;;;;;20.97;62.18;95215.38;5016200;28;20037;-75
2023/06/05 09:37:00;;;;;;;8.60;7.28;;;;;;;20.80;60.66;95220.00;5017144;28;20069;-74
2023/06/05 09:39:26;;;;;;;8.07;7.22;;;;;;;20.82;61.83;95223.28;5032663;28;20033;-74
2023/06/05 09:41:51;;;;;;;8.25;6.93;;;;;;;20.83;60.54;95224.91;5032407;28;20025;-74
2023/06/05 09:44:18;;;;;;;9.13;7.25;;;;;;;20.83;60.13;95224.91;5032439;28;20036;-74
2023/06/05 09:46:53;;;;;;;11.93;7.07;;;;;;;20.75;61.30;95227.63;5016110;28;20049;-74
2023/06/05 09:49:19;;;;;;;8.30;6.53;;;;;;;20.67;59.67;95219.78;5032404;28;20112;-74
2023/06/05 09:51:45;;;;;;;8.52;6.50;;;;;;;20.61;58.41;95226.59;5033777;28;20042;-74
2023/06/05 09:54:11;;;;;;;10.30;6.80;;;;;;;20.39;59.95;95215.03;5033055;28;20447;-74
2023/06/05 09:56:36;;;;;;;8.10;6.70;;;;;;;20.42;59.08;95221.78;5015846;28;20037;-74
2023/06/05 09:59:02;;;;;;;6.95;6.25;;;;;;;20.40;59.84;95211.44;5015697;28;20037;-74
2023/06/05 10:01:28;;;;;;;8.38;6.70;;;;;;;20.25;60.41;95206.13;5032213;28;20037;-74
2023/06/05 10:04:00;;;;;;;9.45;7.03;;;;;;;20.31;60.71;95221.22;5031544;28;20026;-74
2023/06/05 10:06:27;;;;;;;8.98;6.93;;;;;;;20.43;60.61;95218.16;5015948;28;20057;-75
2023/06/05 10:08:55;;;;;;;8.95;7.40;;;;;;;20.35;62.43;95216.41;5031932;28;20037;-74
2023/06/05 10:11:22;;;;;;;8.70;7.05;;;;;;;20.57;62.14;95213.97;5032074;28;20140;-74
2023/06/05 10:13:48;;;;;;;9.40;7.10;;;;;;;20.58;62.03;95205.84;5031543;28;20539;-74
2023/06/05 10:16:14;;;;;;;9.68;6.75;;;;;;;20.78;61.13;95203.50;4999270;28;20563;-74
2023/06/05 10:18:40;;;;;;;10.52;7.30;;;;;;;20.80;61.13;95200.69;5015335;28;20041;-74
2023/06/05 10:21:05;;;;;;;10.82;7.18;;;;;;;20.90;58.89;95206.53;5030872;28;20481;-74
2023/06/05 10:23:31;;;;;;;7.68;6.88;;;;;;;20.85;58.19;95208.91;5031413;28;20032;-75
2023/06/05 10:25:56;;;;;;;7.63;6.60;;;;;;;21.13;58.80;95199.34;5031727;28;20041;-74
2023/06/05 10:28:36;;;;;;;8.80;6.88;;;;;;;21.11;59.00;95206.63;4998734;28;20037;-75
2023/06/05 10:31:08;;;;;;;9.00;7.28;;;;;;;21.11;58.68;95197.88;5033191;28;20025;-74
2023/06/05 10:33:42;;;;;;;8.65;7.25;;;;;;;21.18;58.76;95188.25;5015093;28;20045;-74
2023/06/05 10:36:40;;;;;;;8.65;7.35;;;;;;;21.26;58.96;95182.03;5032635;28;20087;-75
2023/06/05 10:39:08;;;;;;;9.23;6.97;;;;;;;21.23;58.79;95196.44;5032707;28;20025;-74
2023/06/05 10:41:33;;;;;;;10.23;6.88;;;;;;;21.15;59.05;95172.75;5031186;28;20067;-74
2023/06/05 10:43:59;;;;;;;7.90;7.10;;;;;;;21.52;57.57;95182.38;5014875;28;20103;-74
2023/06/05 10:46:28;;;;;;;8.25;7.32;;;;;;;21.42;58.08;95181.84;5014617;28;20037;-75
2023/06/05 10:49:13;;;;;;;9.40;7.97;;;;;;;21.46;57.59;95175.19;5032302;28;20029;-74
2023/06/05 10:51:40;;;;;;;9.88;7.10;;;;;;;21.64;57.31;95177.41;5031162;28;20030;-74
2023/06/05 10:54:06;;;;;;;9.00;7.10;;;;;;;21.59;57.13;95164.78;5030724;28;20041;-74
2023/06/05 10:56:51;;;;;;;7.97;6.45;;;;;;;21.75;56.81;95171.66;5032519;28;20034;-75
2023/06/05 10:59:17;;;;;;;7.95;6.57;;;;;;;21.61;56.78;95170.69;5030949;28;20032;-74
2023/06/05 11:01:42;;;;;;;8.30;6.88;;;;;;;21.61;55.97;95164.59;5031099;28;20049;-74
2023/06/05 11:04:08;;;;;;;9.18;6.22;;;;;;;21.73;55.62;95162.25;5030935;28;20072;-75
2023/06/05 11:06:33;;;;;;;7.07;5.97;;;;;;;21.84;55.22;95159.13;5014307;28;20032;-74
2023/06/05 11:09:14;;;;;;;8.52;6.15;;;;;;;22.02;54.48;95156.06;5032066;28;20087;-75
2023/06/05 11:12:15;;;;;;;7.43;6.13;;;;;;;22.00;53.41;95152.78;5032445;28;20495;-74
2023/06/05 11:14:44;;;;;;;7.18;5.22;;;;;;;22.00;52.34;95150.94;5029628;28;20037;-74
2023/06/05 11:17:32;;;;;;;7.38;5.93;;;;;;;21.93;53.71;95152.72;5026696;28;20049;-74
2023/06/05 11:20:05;;;;;;;7.85;6.60;;;;;;;22.02;55.13;95148.13;5015197;28;20037;-74
2023/06/05 11:22:31;;;;;;;7.38;6.07;;;;;;;21.97;54.96;95145.22;5030658;28;20556;-74
2023/06/05 11:25:21;;;;;;;7.95;5.80;;;;;;;22.16;54.90;95151.69;5030531;28;20116;-74
2023/06/05 11:27:53;;;;;;;6.75;5.95;;;;;;;22.09;55.41;95135.75;5030564;28;20330;-75
2023/06/05 11:30:26;;;;;;;7.15;6.22;;;;;;;22.23;54.16;95124.34;5013812;28;20044;-74